Дата Пункты Температура Давл., мм. Влажн., % Ветер Погодные явления
Воздуха Воды Направл. Скорость
08.04.18 09:00 Одесса 11.0 9.0 766 60 С 3 09 ЧАСОВ
08.04.18 06:00 Одесса 8.0 9.0 766 65 С 3 06 ЧАСОВ
08.04.18 03:00 Одесса 10.0 9.0 766 63 С 4 03 ЧАСА
07.04.18 09:00 Одесса 17.0 9.0 764 49 С 3 21 ЧАС
07.04.18 06:00 Одесса 19.0 9.0 763 42 С 0 18 ЧАСОВ
07.04.18 03:00 Одесса 17.0 9.0 764 53 В 2 15 ЧАСОВ
07.04.18 12:00 Одесса 15.0 7.0 764 59 С-В 3 12 ЧАСОВ
07.04.18 09:00 Одесса 11.0 7.0 763 67 С 3 09 ЧАСОВ
07.04.18 06:00 Одесса 10.0 7.0 761 71 С 2 06 ЧАСОВ
07.04.18 03:00 Одесса 11.0 7.0 761 61 С 2 03 ЧАСА
06.04.18 09:00 Одесса 14.0 7.0 760 41 З 1 21 ЧАС
06.04.18 06:00 Одесса 15.0 7.0 759 40 С 0 18 ЧАСОВ
06.04.18 03:00 Одесса 13.0 7.0 759 58 Ю-В 2 15 ЧАСОВ
06.04.18 12:00 Одесса 10.0 6.0 759 72 С-В 1 12 ЧАСОВ
06.04.18 09:00 Одесса 8.0 6.0 759 85 В 2 09 ЧАСОВ
06.04.18 06:00 Одесса 7.0 4.0 758 88 С 0 06 ЧАСОВ
06.04.18 03:00 Одесса 6.0 4.0 758 90 С 1 03 ЧАСА
05.04.18 09:00 Одесса 7.0 4.0 758 91 Ю 4 21 ЧАС
05.04.18 06:00 Одесса 7.0 4.0 758 91 Ю 4 18 ЧАСОВ
05.04.18 03:00 Одесса 9.0 4.0 759 85 Ю 5 15 ЧАСОВ
Количество строк
1 2 3 4 5 6 7 8 9 10
Page 7 of 354